createdAt,value
2022-11-01T00:08:26.342Z,64.90
2022-11-01T00:23:34.949Z,56.85
2022-11-01T00:31:11.764Z,64.10
2022-11-01T00:38:50.674Z,56.35
2022-11-01T00:46:24.415Z,53.97
2022-11-01T00:53:59.455Z,50.50
2022-11-01T01:09:08.386Z,50.80
2022-11-01T01:24:18.136Z,47.60
2022-11-01T01:39:26.853Z,43.25
2022-11-01T01:47:00.713Z,52.40
2022-11-01T01:54:36.222Z,53.83
2022-11-01T02:02:10.259Z,48.95
2022-11-01T02:09:45.924Z,43.67
2022-11-01T02:17:28.250Z,53.15
2022-11-01T02:25:11.365Z,59.88
2022-11-01T02:33:16.002Z,50.05
2022-11-01T02:41:00.316Z,51.97
2022-11-01T02:48:35.313Z,52.30
2022-11-01T03:03:48.628Z,51.33
2022-11-01T03:11:24.945Z,42.50
2022-11-01T03:19:27.626Z,45.92
2022-11-01T03:27:06.357Z,46.85
2022-11-01T03:34:42.564Z,48.92
2022-11-01T03:42:19.775Z,41.80
2022-11-01T03:50:13.476Z,43.38
2022-11-01T03:57:47.930Z,45.83
2022-11-01T04:05:25.029Z,38.73
2022-11-01T04:12:59.660Z,40.83
2022-11-01T04:20:35.645Z,40.45
2022-11-01T04:28:09.264Z,39.60
2022-11-01T04:35:44.467Z,47.45
2022-11-01T04:43:18.719Z,46.65
2022-11-01T04:50:53.892Z,46.03
2022-11-01T04:58:27.521Z,59.42
2022-11-01T05:06:02.984Z,59.63
2022-11-01T05:13:37.515Z,64.28
2022-11-01T05:21:12.538Z,53.95
2022-11-01T05:36:21.352Z,56.78
2022-11-01T05:43:55.033Z,50.45
2022-11-01T05:51:30.002Z,61.72
2022-11-01T06:06:38.575Z,57.38
2022-11-01T06:21:47.833Z,69.55
2022-11-01T06:29:21.788Z,62.55
2022-11-01T06:36:56.737Z,52.67
2022-11-01T06:44:30.409Z,60.15
2022-11-01T06:52:05.888Z,55.80
2022-11-01T06:59:39.562Z,55.10
2022-11-01T07:07:14.565Z,48.30
2022-11-01T07:22:23.074Z,43.90
2022-11-01T07:37:32.547Z,45.97
2022-11-01T07:45:12.026Z,34.35
2022-11-01T07:52:47.978Z,48.05
2022-11-01T08:07:57.283Z,56.15
2022-11-01T08:15:30.968Z,47.40
2022-11-01T08:23:06.646Z,48.03
2022-11-01T08:30:42.484Z,45.10
2022-11-01T08:38:17.449Z,43.55
2022-11-01T08:53:25.909Z,37.90
2022-11-01T09:08:34.820Z,39.10
2022-11-01T09:16:09.650Z,29.85
2022-11-01T09:38:57.597Z,29.33
2022-11-01T09:46:35.436Z,35.92
2022-11-01T09:54:12.037Z,29.65
2022-11-01T10:01:57.864Z,23.80
2022-11-01T10:09:43.289Z,21.65
2022-11-01T10:24:56.831Z,22.92
2022-11-01T10:32:36.131Z,25.25
2022-11-01T10:40:17.186Z,22.38
2022-11-01T10:47:58.584Z,27.58
2022-11-01T10:55:40.105Z,20.10
2022-11-01T11:03:20.425Z,23.25
2022-11-01T11:10:57.222Z,20.75
2022-11-01T11:18:35.242Z,16.10
2022-11-01T11:26:16.295Z,16.73
2022-11-01T11:33:52.870Z,13.70
2022-11-01T11:41:32.613Z,11.82
2022-11-01T11:49:07.471Z,11.52
2022-11-01T11:56:42.441Z,9.63
2022-11-01T12:04:19.173Z,12.15
2022-11-01T12:11:54.193Z,10.27
2022-11-01T12:27:10.798Z,11.77
2022-11-01T12:34:48.789Z,12.27
2022-11-01T12:42:30.261Z,10.27
2022-11-01T12:50:10.851Z,9.77
2022-11-01T12:57:45.933Z,12.30
2022-11-01T13:05:23.217Z,11.05
2022-11-01T13:13:11.660Z,14.07
2022-11-01T13:20:52.895Z,10.65
2022-11-01T13:28:44.694Z,9.23
2022-11-01T13:36:28.709Z,9.70
2022-11-01T13:44:11.124Z,8.40
2022-11-01T13:51:49.655Z,9.63
2022-11-01T13:59:45.043Z,8.57
2022-11-01T14:07:19.084Z,9.88
2022-11-01T14:14:54.262Z,12.15
2022-11-01T14:22:31.150Z,6.15
2022-11-01T14:30:15.463Z,10.77
2022-11-01T14:37:53.210Z,8.32
2022-11-01T14:45:35.135Z,7.82
2022-11-01T14:53:17.627Z,11.23
2022-11-01T15:00:55.445Z,7.72
2022-11-01T15:08:33.896Z,8.43
2022-11-01T15:16:15.903Z,10.80
2022-11-01T15:23:51.611Z,8.07
2022-11-01T15:31:27.144Z,9.82
2022-11-01T15:39:03.796Z,9.50
2022-11-01T15:46:41.782Z,9.50
2022-11-01T15:54:21.914Z,8.95
2022-11-01T16:02:01.239Z,10.35
2022-11-01T16:09:40.282Z,8.43
2022-11-01T16:17:27.098Z,9.88
2022-11-01T16:25:18.300Z,11.35
2022-11-01T16:32:53.370Z,12.15
2022-11-01T16:48:05.615Z,12.35
2022-11-01T16:55:40.932Z,11.48
2022-11-01T17:03:16.182Z,8.27
2022-11-01T17:10:50.694Z,11.77
2022-11-01T17:18:29.446Z,11.13
2022-11-01T17:26:04.863Z,12.40
2022-11-01T17:33:40.488Z,8.27
2022-11-01T17:41:19.655Z,7.95
2022-11-01T17:48:54.708Z,10.05
2022-11-01T18:04:03.309Z,11.07
2022-11-01T18:19:37.841Z,16.35
2022-11-01T18:27:13.476Z,14.77
2022-11-01T18:34:53.441Z,12.88
2022-11-01T18:42:27.265Z,13.18
2022-11-01T18:50:10.626Z,14.73
2022-11-01T18:57:46.418Z,13.95
2022-11-01T19:05:21.466Z,14.23
2022-11-01T19:12:56.111Z,13.25
2022-11-01T19:20:33.621Z,19.85
2022-11-01T19:28:16.546Z,15.38
2022-11-01T19:35:57.327Z,13.82
2022-11-01T19:43:31.284Z,14.20
2022-11-01T19:51:15.973Z,17.60
2022-11-01T19:58:52.498Z,14.13
2022-11-01T20:06:35.306Z,18.05
2022-11-01T20:14:09.675Z,15.82
2022-11-01T20:21:44.712Z,17.37
2022-11-01T20:37:14.910Z,16.95
2022-11-01T20:44:46.980Z,18.90
2022-11-01T21:00:18.385Z,16.38
2022-11-01T21:07:59.403Z,17.90
2022-11-01T21:15:36.015Z,23.20
2022-11-01T21:23:23.695Z,21.35
2022-11-01T21:31:03.034Z,25.70
2022-11-01T21:38:42.242Z,25.63
2022-11-01T21:46:18.325Z,20.77
2022-11-01T21:53:53.378Z,24.02
2022-11-01T22:01:27.156Z,19.83
2022-11-01T22:09:02.211Z,22.35
2022-11-01T22:16:36.052Z,21.13
2022-11-01T22:24:11.202Z,21.63
2022-11-01T22:31:44.875Z,21.77
2022-11-01T22:39:22.194Z,19.35
2022-11-01T22:46:59.016Z,20.40
2022-11-01T22:54:40.113Z,19.80
2022-11-01T23:02:27.705Z,21.08
2022-11-01T23:10:07.156Z,17.20
2022-11-01T23:17:40.867Z,21.00
2022-11-01T23:25:16.072Z,17.70
2022-11-01T23:32:49.746Z,19.55
2022-11-01T23:40:33.055Z,19.10
2022-11-01T23:48:09.742Z,16.90
2022-11-01T23:55:48.128Z,19.15
